Airport View

Enter AWOS ICAO identifier for current METAR.

ex. KFNL

KXSA 202205Z AUTO 10006KT 10SM CLR 21/21 A3021 RMK AO2 T02130213

20 Oct 2020 22:33

Frequency: 125.775

Phone: 804-445-8724

Other Area AWOS: KFYJ - KW96 - KW75 - KOFP

TAF KRIC 201726Z 2018/2118 21004KT P6SM FEW040 FM210300 00000KT P6SM BKN020 FM210600 00000KT 1SM BR OVC004 FM211500 VRB03KT P6SM BKN012 FM211700 18004KT P6SM BKN050